Latest Weather Observations for Hindmarsh Island

IDS60901

Issued at 7:11 am CST Saturday 21 July 2018 (issued every 10 minutes, with the page automatically refreshed every 10 minutes)

About weather observations | Map of Adelaide area stations | Latest observations for Adelaide area | Other Formats
Station Details ID: 023894 Name: HINDMARSH ISLAND AWS Lat: -35.52 Lon: 138.82 Height: 11.0 m
Data from the previous 72 hours. | See also: Recent months at Hindmarsh Island
Date/Time
CST
Temp
°C
App
Temp
°C
Dew
Point
°C
Rel
Hum
%
Delta-T
°C
Wind Press
QNH
hPa
Press
MSL
hPa
Rain since
9am
mm
Dir  Spd
km/h
Gust
km/h
Spd
kts
Gust
kts
21/07:00am 8.9 5.7 6.7 86 1.0 N 13 17 7 9 1021.6 1021.6 0.0
21/06:30am 8.9 5.7 6.9 87 0.9 N 13 17 7 9 1021.2 1021.2 0.0
21/06:00am 9.0 5.8 6.8 86 1.0 N 13 17 7 9 1021.1 1021.1 0.0
21/05:30am 9.0 5.4 6.6 85 1.1 N 15 19 8 10 1021.1 1021.1 0.0
21/05:00am 9.1 5.5 6.7 85 1.1 N 15 20 8 11 1020.9 1020.9 0.0
21/04:30am 9.3 6.1 6.7 84 1.2 N 13 17 7 9 1020.9 1020.9 0.0
21/04:00am 9.5 6.2 6.6 82 1.4 NNW 13 15 7 8 1020.8 1020.8 0.0
21/03:30am 9.2 5.9 6.5 83 1.2 NNW 13 19 7 10 1020.8 1020.8 0.0
21/03:00am 8.6 5.6 5.9 83 1.2 N 11 15 6 8 1020.9 1020.9 0.0
21/02:30am 8.3 5.6 5.6 83 1.2 N 9 13 5 7 1021.1 1021.1 0.0
21/02:00am 7.7 4.4 4.8 82 1.3 N 11 13 6 7 1021.2 1021.2 0.0
21/01:30am 7.8 4.1 4.7 81 1.4 NNW 13 15 7 8 1021.3 1021.3 0.0
21/01:00am 7.7 4.4 4.5 80 1.4 NNW 11 13 6 7 1021.5 1021.5 0.0
21/12:30am 7.7 4.0 4.7 81 1.3 NNW 13 15 7 8 1021.6 1021.6 0.0
21/12:00am 7.6 3.9 4.6 81 1.3 NW 13 17 7 9 1021.7 1021.7 0.0
 
Date/Time
CST
Temp
°C
App
Temp
°C
Dew
Point
°C
Rel
Hum
%
Delta-T
°C
Wind Press
QNH
hPa
Press
MSL
hPa
Rain since
9am
mm
Dir  Spd
km/h
Gust
km/h
Spd
kts
Gust
kts
20/11:30pm 7.4 4.1 4.4 81 1.3 NNW 11 15 6 8 1021.6 1021.6 0.0
20/11:00pm 7.4 3.7 4.5 82 1.3 NNW 13 15 7 8 1021.5 1021.5 0.0
20/10:30pm 7.2 3.1 4.3 82 1.2 NNW 15 19 8 10 1021.6 1021.6 0.0
20/10:00pm 7.3 3.5 4.1 80 1.4 NW 13 13 7 7 1021.4 1021.4 0.0
20/09:30pm 7.2 3.4 4.0 80 1.4 NNW 13 15 7 8 1021.5 1021.5 0.0
20/09:00pm 7.4 4.4 4.2 80 1.4 NNW 9 13 5 7 1021.5 1021.5 0.0
20/08:30pm 7.8 4.8 4.0 77 1.6 W 9 13 5 7 1021.2 1021.2 0.0
20/08:00pm 7.8 4.0 3.8 76 1.7 WNW 13 15 7 8 1020.9 1020.9 0.0
20/07:30pm 8.2 4.4 4.0 75 1.8 NW 13 17 7 9 1020.7 1020.7 0.0
20/07:00pm 8.5 5.2 4.5 76 1.8 WNW 11 15 6 8 1020.3 1020.3 0.0
20/06:30pm 9.1 5.4 4.7 74 1.9 W 13 17 7 9 1020.0 1020.0 0.0
20/06:00pm 9.3 5.6 4.5 72 2.1 NW 13 15 7 8 1019.7 1019.7 0.0
20/05:30pm 10.0 6.7 4.4 68 2.5 WNW 11 15 6 8 1019.4 1019.4 0.0
20/05:00pm 11.1 6.2 4.1 62 3.1 W 19 24 10 13 1019.1 1019.1 0.0
20/04:30pm 11.8 7.3 4.3 60 3.4 W 17 26 9 14 1018.9 1018.9 0.0
20/04:00pm 12.2 6.7 3.9 57 3.7 WSW 22 30 12 16 1018.7 1018.7 0.0
20/03:30pm 11.7 3.5 4.7 62 3.2 WSW 37 48 20 26 1018.2 1018.2 0.0
20/03:17pm 11.8 5.2 4.3 60 3.4 WSW 28 46 15 25 1018.2 1018.2 0.0
20/03:00pm 12.4 6.2 4.1 57 3.7 WSW 26 33 14 18 1018.1 1018.1 0.0
20/02:30pm 11.5 4.4 5.6 67 2.7 SW 32 41 17 22 1018.0 1018.0 0.0
20/02:00pm 13.0 7.5 5.7 61 3.4 SW 24 30 13 16 1017.9 1017.9 0.0
20/01:30pm 11.1 4.4 5.6 69 2.5 SSW 30 37 16 20 1017.8 1017.8 0.0
20/01:15pm 11.6 3.8 5.0 64 3.0 SW 35 44 19 24 1017.7 1017.7 0.0
20/01:00pm 13.6 7.5 4.7 55 4.1 SW 26 35 14 19 1017.9 1017.9 0.0
20/12:30pm 11.4 3.9 4.6 63 3.1 SSW 33 43 18 23 1018.0 1018.0 0.0
20/12:20pm 13.3 6.8 4.7 56 4.0 WSW 28 48 15 26 1018.0 1018.0 0.0
20/12:00pm 11.9 6.1 4.6 61 3.3 WSW 24 33 13 18 1018.2 1018.2 0.0
20/11:30am 11.4 4.5 4.6 63 3.1 WSW 30 50 16 27 1018.1 1018.1 0.0
20/11:00am 11.0 3.5 4.2 63 3.0 WSW 33 52 18 28 1018.3 1018.3 0.0
20/10:55am 11.6 4.9 3.6 58 3.5 WSW 28 52 15 28 1018.1 1018.1 0.0
20/10:30am 11.9 6.0 3.9 58 3.6 W 24 35 13 19 1018.0 1018.0 0.0
20/10:00am 11.6 5.5 4.8 63 3.1 WSW 26 37 14 20 1017.8 1017.8 0.0
20/09:30am 10.8 4.1 3.8 62 3.1 W 28 35 15 19 1017.2 1017.2 0.0
20/09:00am 10.3 4.4 4.0 65 2.8 W 24 33 13 18 1016.8 1016.8 7.8
20/08:30am 9.6 4.1 4.2 69 2.4 W 22 32 12 17 1016.4 1016.4 7.8
20/08:00am 8.8 2.8 3.6 70 2.2 W 24 30 13 16 1016.1 1016.1 7.8
20/07:30am 8.6 3.1 3.8 72 2.1 W 22 30 12 16 1015.3 1015.3 7.8
20/07:00am 8.5 2.5 3.6 71 2.1 W 24 33 13 18 1015.0 1015.0 7.8
20/06:30am 8.1 3.5 3.8 74 1.9 WNW 17 22 9 12 1014.6 1014.6 7.8
20/06:00am 8.1 3.6 4.3 77 1.7 WNW 17 20 9 11 1014.2 1014.2 7.8
20/05:30am 8.4 2.6 4.2 75 1.8 WNW 24 30 13 16 1013.6 1013.6 7.6
20/05:00am 8.4 1.1 4.4 76 1.8 W 32 50 17 27 1013.4 1013.4 7.4
20/04:54am 9.0 2.4 4.4 73 2.0 W 28 50 15 27 1013.7 1013.7 7.2
20/04:30am 8.7 2.4 3.7 71 2.2 WNW 26 35 14 19 1013.1 1013.1 7.2
20/04:00am 8.5 2.9 3.6 71 2.1 WNW 22 33 12 18 1012.9 1012.9 7.2
20/03:30am 8.3 2.3 3.6 72 2.0 WNW 24 32 13 17 1012.8 1012.8 7.2
20/03:00am 7.7 2.6 2.8 71 2.1 WNW 19 26 10 14 1012.6 1012.6 7.2
20/02:30am 8.8 2.8 3.6 70 2.2 W 24 37 13 20 1012.6 1012.6 7.2
20/02:00am 8.7 2.8 3.7 71 2.2 W 24 37 13 20 1012.6 1012.6 7.2
20/01:30am 8.6 2.4 4.2 74 1.9 WSW 26 35 14 19 1012.5 1012.5 7.2
20/01:00am 8.1 2.9 3.4 72 2.0 WNW 20 28 11 15 1012.4 1012.4 7.2
20/12:30am 8.0 3.3 3.3 72 2.0 WNW 17 20 9 11 1012.2 1012.2 7.2
20/12:00am 8.9 2.2 3.9 71 2.2 W 28 39 15 21 1012.1 1012.1 7.2
 
Date/Time
CST
Temp
°C
App
Temp
°C
Dew
Point
°C
Rel
Hum
%
Delta-T
°C
Wind Press
QNH
hPa
Press
MSL
hPa
Rain since
9am
mm
Dir  Spd
km/h
Gust
km/h
Spd
kts
Gust
kts
19/11:55pm 9.1 2.1 4.1 71 2.2 W 30 39 16 21 1012.0 1012.0 7.2
19/11:30pm 9.2 -0.9 3.6 68 2.4 WSW 46 67 25 36 1012.1 1012.1 7.2
19/11:20pm 9.6 -0.2 3.6 66 2.6 WSW 44 63 24 34 1012.1 1012.1 7.2
19/11:13pm 9.5 1.2 2.4 61 3.0 W 35 72 19 39 1011.9 1011.9 7.2
19/11:09pm 9.3 2.4 2.4 62 2.9 W 28 61 15 33 1012.1 1012.1 7.2
19/11:00pm 9.1 2.9 2.4 63 2.8 WNW 24 32 13 17 1011.6 1011.6 7.2
19/10:30pm 8.9 2.8 2.5 64 2.7 W 24 32 13 17 1011.3 1011.3 7.2
19/10:00pm 8.5 3.8 2.9 68 2.4 WNW 17 24 9 13 1010.9 1010.9 7.2
19/09:30pm 8.7 3.4 2.9 67 2.5 WNW 20 26 11 14 1010.9 1010.9 7.2
19/09:00pm 9.2 4.5 3.0 65 2.7 WNW 17 22 9 12 1010.4 1010.4 7.2
19/08:30pm 9.9 3.5 3.4 64 2.8 W 26 35 14 19 1010.3 1010.3 7.2
19/08:00pm 10.3 4.4 4.0 65 2.8 W 24 35 13 19 1010.0 1010.0 7.2
19/07:30pm 10.6 4.7 4.1 64 2.9 W 24 35 13 19 1009.6 1009.6 7.2
19/07:00pm 10.6 4.7 3.9 63 3.0 W 24 33 13 18 1009.1 1009.1 7.2
19/06:30pm 10.8 5.8 4.5 65 2.8 W 20 28 11 15 1008.9 1008.9 7.2
19/06:00pm 10.8 6.5 5.1 68 2.6 WNW 17 24 9 13 1009.1 1009.1 7.2
19/05:30pm 11.0 5.8 5.5 69 2.5 W 22 30 12 16 1008.8 1008.8 7.2
19/05:00pm 11.0 5.2 6.4 73 2.2 WSW 26 35 14 19 1008.0 1008.0 7.2
19/04:30pm 11.2 7.1 6.3 72 2.3 W 17 37 9 20 1007.8 1007.8 7.2
19/04:00pm 10.6 5.0 5.4 70 2.4 WSW 24 35 13 19 1007.7 1007.7 7.2
19/03:44pm 10.2 4.2 5.4 72 2.2 WSW 26 52 14 28 1007.7 1007.7 7.2
19/03:42pm 10.6 5.0 5.4 70 2.4 W 24 52 13 28 1007.5 1007.5 7.0
19/03:30pm 12.2 8.6 6.7 69 2.6 W 15 24 8 13 1007.5 1007.5 7.0
19/03:00pm 12.7 11.3 7.4 70 2.6 NNW 4 7 2 4 1007.5 1007.5 7.0
19/02:30pm 10.8 8.8 6.9 77 1.9 N 7 9 4 5 1007.5 1007.5 7.0
19/02:00pm 9.5 5.6 5.5 76 1.8 NW 15 19 8 10 1008.2 1008.2 7.0
19/01:30pm 9.5 4.4 6.0 79 1.6 W 22 32 12 17 1008.4 1008.4 7.0
19/01:00pm 9.4 3.3 6.5 82 1.3 WSW 28 39 15 21 1009.0 1009.0 6.4
19/12:30pm 9.4 3.8 7.2 86 1.0 WSW 26 41 14 22 1008.8 1008.8 5.2
19/12:00pm 9.9 3.6 7.2 83 1.3 SW 30 43 16 23 1008.8 1008.8 2.0
19/11:59am 9.9 3.9 7.0 82 1.4 SW 28 43 15 23 1008.8 1008.8 2.0
19/11:30am 10.7 7.3 7.6 81 1.5 SW 15 20 8 11 1009.0 1009.0 1.4
19/11:00am 11.3 7.7 6.8 74 2.1 W 15 26 8 14 1009.2 1009.2 1.0
19/10:30am 11.1 8.5 7.6 79 1.7 WNW 11 19 6 10 1009.4 1009.4 1.0
19/10:00am 10.2 6.8 7.6 84 1.2 NNW 15 20 8 11 1009.3 1009.3 1.0
19/09:30am 9.9 6.4 7.2 83 1.3 WNW 15 20 8 11 1009.3 1009.3 1.0
19/09:00am 10.3 5.5 7.2 81 1.5 WSW 22 32 12 17 1009.6 1009.6 1.4
19/08:30am 10.4 6.1 7.8 84 1.3 WSW 20 35 11 19 1009.3 1009.3 1.4
19/08:00am 10.7 7.8 8.3 85 1.2 W 13 17 7 9 1009.1 1009.1 1.4
19/07:30am 11.1 5.0 8.3 83 1.4 WSW 30 43 16 23 1009.0 1009.0 0.6
19/07:19am 11.9 6.9 8.0 77 1.9 WSW 24 50 13 27 1008.8 1008.8 0.0
19/07:00am 13.3 9.2 8.8 74 2.3 WNW 20 30 11 16 1008.7 1008.7 0.0
19/06:30am 13.5 7.9 8.6 72 2.5 WNW 28 39 15 21 1008.3 1008.3 0.0
19/06:00am 13.1 9.1 8.2 72 2.4 WNW 19 30 10 16 1008.0 1008.0 0.0
19/05:30am 12.5 8.4 7.8 73 2.3 NW 19 26 10 14 1007.9 1007.9 0.0
19/05:00am 12.6 7.9 7.7 72 2.4 NW 22 30 12 16 1007.7 1007.7 0.0
19/04:30am 12.6 7.4 7.3 70 2.6 NW 24 39 13 21 1007.8 1007.8 0.0
19/04:00am 12.7 7.2 7.4 70 2.6 NW 26 37 14 20 1007.8 1007.8 0.0
19/03:30am 12.6 6.9 6.9 68 2.7 NW 26 37 14 20 1008.2 1008.2 0.0
19/03:00am 12.4 7.1 6.7 68 2.7 NW 24 35 13 19 1008.5 1008.5 0.0
19/02:30am 12.3 7.3 6.4 67 2.8 NNW 22 30 12 16 1009.0 1009.0 0.0
19/02:00am 12.0 7.8 5.9 66 2.9 NNW 17 22 9 12 1009.5 1009.5 0.0
19/01:30am 11.7 8.2 5.3 65 3.0 NNW 13 15 7 8 1009.8 1009.8 0.0
19/01:00am 12.0 8.8 5.2 63 3.1 NNW 11 17 6 9 1010.1 1010.1 0.0
19/12:30am 12.4 8.8 5.1 61 3.4 NNW 13 15 7 8 1010.5 1010.5 0.0
19/12:00am 12.6 8.9 4.6 58 3.7 NNW 13 20 7 11 1010.5 1010.5 0.0
 
Date/Time
CST
Temp
°C
App
Temp
°C
Dew
Point
°C
Rel
Hum
%
Delta-T
°C
Wind Press
QNH
hPa
Press
MSL
hPa
Rain since
9am
mm
Dir  Spd
km/h
Gust
km/h
Spd
kts
Gust
kts
18/11:30pm 13.2 9.4 4.1 54 4.1 NW 13 19 7 10 1010.6 1010.6 0.0
18/11:00pm 13.3 9.1 3.9 53 4.3 NNW 15 20 8 11 1010.6 1010.6 0.0
18/10:30pm 13.8 9.6 3.9 51 4.5 NW 15 22 8 12 1010.7 1010.7 0.0
18/10:00pm 14.6 8.6 3.1 46 5.2 NW 24 35 13 19 1010.6 1010.6 0.0
18/09:30pm 14.9 8.8 2.8 44 5.4 NW 24 35 13 19 1010.6 1010.6 0.0
18/09:00pm 15.1 9.0 3.0 44 5.5 NNW 24 35 13 19 1010.7 1010.7 0.0
18/08:30pm 14.9 8.8 2.8 44 5.4 NNW 24 37 13 20 1010.9 1010.9 0.0
18/08:00pm 14.7 9.0 2.9 45 5.3 NNW 22 30 12 16 1010.8 1010.8 0.0
18/07:30pm 14.5 8.8 2.7 45 5.3 NNW 22 28 12 15 1010.9 1010.9 0.0
18/07:00pm 14.6 9.2 2.5 44 5.4 NNW 20 32 11 17 1010.9 1010.9 0.0
18/06:30pm 14.3 9.2 2.9 46 5.1 NNW 19 28 10 15 1011.0 1011.0 0.0
18/06:00pm 14.7 9.1 3.5 47 5.1 NNW 22 30 12 16 1010.9 1010.9 0.0
18/05:30pm 14.9 9.3 3.7 47 5.1 NNW 22 32 12 17 1010.9 1010.9 0.0
18/05:00pm 15.4 9.5 3.9 46 5.3 NNW 24 35 13 19 1011.0 1011.0 0.0
18/04:34pm 15.9 9.0 4.6 47 5.3 NNW 30 48 16 26 1011.2 1011.2 0.0
18/04:30pm 16.0 8.6 4.1 45 5.5 NNW 32 48 17 26 1011.2 1011.2 0.0
18/04:00pm 16.4 9.0 4.8 46 5.5 NNW 33 54 18 29 1011.3 1011.3 0.0
18/03:38pm 16.5 8.5 5.5 48 5.3 NW 37 56 20 30 1011.8 1011.8 0.0
18/03:30pm 16.5 7.9 4.9 46 5.5 NNW 39 56 21 30 1011.7 1011.7 0.0
18/03:04pm 16.5 8.8 5.5 48 5.3 NW 35 54 19 29 1012.0 1012.0 0.0
18/03:00pm 16.5 8.5 5.8 49 5.2 NW 37 54 20 29 1012.0 1012.0 0.0
18/02:33pm 16.5 8.6 6.3 51 5.0 NW 37 56 20 30 1012.3 1012.3 0.0
18/02:30pm 16.6 8.4 6.4 51 5.0 NW 39 54 21 29 1012.3 1012.3 0.0
18/02:06pm 16.5 10.1 6.9 53 4.7 NW 30 48 16 26 1012.6 1012.6 0.0
18/02:00pm 16.7 9.5 7.6 55 4.6 NW 35 50 19 27 1012.7 1012.7 0.0
18/01:34pm 16.2 9.5 7.4 56 4.4 NW 32 52 17 28 1012.9 1012.9 0.0
18/01:30pm 16.2 9.4 7.7 57 4.3 NW 33 46 18 25 1013.1 1013.1 0.0
18/01:07pm 16.2 9.4 7.7 57 4.3 NW 33 52 18 28 1013.2 1013.2 0.0
18/01:00pm 16.0 9.0 6.7 54 4.6 NW 33 48 18 26 1013.2 1013.2 0.0
18/12:54pm 16.0 9.7 7.5 57 4.2 NW 30 48 16 26 1013.3 1013.3 0.0
18/12:30pm 15.6 9.0 7.6 59 4.0 NW 32 44 17 24 1013.8 1013.8 0.0
18/12:02pm 15.2 8.9 7.3 59 3.9 NNW 30 48 16 26 1014.0 1014.0 0.0
18/12:00pm 15.3 9.1 7.8 61 3.7 NNW 30 43 16 23 1014.1 1014.1 0.0
18/11:30am 14.6 7.0 7.6 63 3.5 NW 37 57 20 31 1014.1 1014.1 0.0
18/11:21am 14.3 6.0 7.8 65 3.2 NW 41 59 22 32 1014.2 1014.2 0.0
18/11:00am 14.1 5.8 7.6 65 3.2 NW 41 54 22 29 1014.5 1014.5 0.0
18/10:30am 13.7 6.6 7.9 68 2.9 NW 35 54 19 29 1014.6 1014.6 0.0
18/10:21am 13.8 6.4 8.4 70 2.7 NW 37 56 20 30 1014.7 1014.7 0.0
18/10:00am 13.4 6.3 8.0 70 2.7 NW 35 48 19 26 1014.7 1014.7 0.0
18/09:30am 12.7 6.5 7.8 72 2.4 NW 30 46 16 25 1014.7 1014.7 0.0
18/09:24am 12.6 6.7 7.7 72 2.4 NW 28 43 15 23 1014.6 1014.6 0.0
18/09:00am 12.4 9.0 7.7 73 2.3 NNW 15 20 8 11 1014.8 1014.8 3.2
18/08:30am 11.4 7.5 7.1 75 2.1 N 17 22 9 12 1014.5 1014.5 3.2
18/08:00am 11.2 6.7 7.1 76 2.0 NNW 20 30 11 16 1014.2 1014.2 3.2
18/07:30am 10.9 5.4 7.4 79 1.7 NNW 26 37 14 20 1014.2 1014.2 3.2

Latest Capital City Observations: Canberra | Sydney | Melbourne | Brisbane | Adelaide | Perth | Hobart | Darwin

Other Formats:

Comma delimited format used in spreadsheet applications
http://www.bom.gov.au/fwo/IDS60901/IDS60901.94677.axf

JavaScript Object Notation format (JSON) in row-major order
http://www.bom.gov.au/fwo/IDS60901/IDS60901.94677.json